Time;durP1;ratioP1;P1;durP2;ratioP2;P2;SDS_P1;SDS_P2;PMS_P1;PMS_P2;Temp;Humidity;BMP_temperature;BMP_pressure;BME280_temperature;BME280_humidity;BME280_pressure;Samples;Min_cycle;Max_cycle;Signal;HPM_P1;HPM_P2
2021/07/03 00:01:18;;;;;;;3.55;2.45;;;486.70;1920.00;;;;;;5064640;28;20070;-58
2021/07/03 00:03:43;;;;;;;3.25;2.20;;;486.70;1920.00;;;;;;5063286;28;20029;-57
2021/07/03 00:06:10;;;;;;;5.32;2.38;;;486.60;1920.00;;;;;;5063963;28;20459;-57
2021/07/03 00:08:35;;;;;;;3.10;2.22;;;486.60;1920.00;;;;;;5064767;28;20017;-57
2021/07/03 00:11:03;;;;;;;4.18;2.33;;;486.60;1945.60;;;;;;5067098;28;20039;-57
2021/07/03 00:13:29;;;;;;;6.00;2.47;;;486.50;1945.60;;;;;;5063583;28;20029;-58
2021/07/03 00:15:55;;;;;;;4.25;2.38;;;486.60;1945.60;;;;;;5064826;28;20035;-57
2021/07/03 00:18:21;;;;;;;3.35;2.13;;;486.60;1945.60;;;;;;5065272;28;20105;-58
2021/07/03 00:20:46;;;;;;;5.00;2.28;;;486.50;1945.60;;;;;;5064512;28;20085;-57
2021/07/03 00:23:13;;;;;;;3.15;2.17;;;486.50;1971.20;;;;;;5048383;28;20037;-58
2021/07/03 00:25:39;;;;;;;4.15;2.38;;;486.40;1996.80;;;;;;5046564;28;20479;-58
2021/07/03 00:28:05;;;;;;;3.92;2.42;;;486.40;1996.80;;;;;;5065297;28;20048;-57
2021/07/03 00:30:31;;;;;;;5.97;2.22;;;461.70;1996.80;;;;;;5063676;28;20116;-57
2021/07/03 00:32:57;;;;;;;3.30;2.45;;;461.70;1996.80;;;;;;5063746;28;20069;-57
2021/07/03 00:35:22;;;;;;;4.75;2.30;;;461.70;1996.80;;;;;;5064925;28;20103;-58
2021/07/03 00:37:49;;;;;;;3.97;2.40;;;461.70;1996.80;;;;;;5045405;28;20120;-58
2021/07/03 00:40:15;;;;;;;6.30;2.70;;;461.70;1996.80;;;;;;5064607;28;20016;-58
2021/07/03 00:42:41;;;;;;;3.50;2.33;;;461.60;2022.40;;;;;;5064412;28;20507;-57
2021/07/03 00:45:08;;;;;;;3.05;2.30;;;461.70;2022.40;;;;;;5062657;28;20025;-59
2021/07/03 00:47:35;;;;;;;3.22;2.33;;;461.60;2022.40;;;;;;5046985;28;20028;-57
2021/07/03 00:50:02;;;;;;;6.07;2.40;;;461.70;2022.40;;;;;;5064444;28;20055;-58
2021/07/03 00:52:27;;;;;;;3.25;2.40;;;461.60;2048.00;;;;;;5063023;28;20498;-59
2021/07/03 00:54:53;;;;;;;3.78;2.20;;;461.50;2073.60;;;;;;5062513;28;20060;-58
2021/07/03 00:57:19;;;;;;;3.92;2.72;;;461.50;2073.60;;;;;;5055425;28;20041;-58
2021/07/03 00:59:47;;;;;;;4.00;2.60;;;461.30;2099.20;;;;;;5060342;28;20112;-57
2021/07/03 01:02:15;;;;;;;2.85;2.40;;;461.20;2124.80;;;;;;5063413;28;20013;-57
2021/07/03 01:04:41;;;;;;;3.92;2.72;;;461.20;2124.80;;;;;;5063293;28;20036;-57
2021/07/03 01:07:08;;;;;;;4.93;2.60;;;461.10;2124.80;;;;;;5065023;28;20055;-57
2021/07/03 01:09:34;;;;;;;4.40;2.97;;;460.90;2150.40;;;;;;5063430;28;20028;-56
2021/07/03 01:12:01;;;;;;;5.60;2.30;;;460.90;2150.40;;;;;;5063155;28;20119;-57
2021/07/03 01:14:27;;;;;;;5.63;2.85;;;436.10;2150.40;;;;;;5064459;28;20016;-57
2021/07/03 01:16:53;;;;;;;3.42;2.33;;;436.10;2176.00;;;;;;5063374;28;20074;-57
2021/07/03 01:19:20;;;;;;;3.67;2.65;;;436.00;2176.00;;;;;;5063410;28;20021;-58
2021/07/03 01:21:56;;;;;;;3.67;2.40;;;436.00;2201.60;;;;;;5064456;28;20405;-58
2021/07/03 01:24:23;;;;;;;3.83;2.45;;;435.80;2201.60;;;;;;5064107;28;20025;-60
2021/07/03 01:26:54;;;;;;;3.60;2.50;;;435.80;2201.60;;;;;;5062464;28;20032;-60
2021/07/03 01:29:22;;;;;;;4.45;2.50;;;435.80;2227.20;;;;;;5062819;28;20726;-59
2021/07/03 01:31:51;;;;;;;5.57;2.67;;;435.80;2227.20;;;;;;5064130;28;20035;-60
2021/07/03 01:34:20;;;;;;;4.55;2.70;;;435.70;2252.80;;;;;;5063308;28;20029;-57
2021/07/03 01:36:46;;;;;;;4.00;2.67;;;435.70;2252.80;;;;;;5062036;28;20544;-56
2021/07/03 01:39:12;;;;;;;3.92;2.70;;;435.70;2252.80;;;;;;5067927;28;20037;-58
2021/07/03 01:41:38;;;;;;;4.55;2.70;;;435.60;2278.40;;;;;;5074076;28;20119;-58
2021/07/03 01:44:05;;;;;;;5.28;2.85;;;435.70;2252.80;;;;;;5073563;28;20025;-58
2021/07/03 01:46:30;;;;;;;3.40;2.53;;;435.60;2278.40;;;;;;5073960;28;20575;-58
2021/07/03 01:49:08;;;;;;;3.58;2.80;;;435.60;2278.40;;;;;;5074068;28;20056;-58
2021/07/03 01:51:35;;;;;;;3.80;2.70;;;435.50;2304.00;;;;;;5073813;28;20029;-59
2021/07/03 01:54:01;;;;;;;4.75;2.40;;;435.60;2278.40;;;;;;5074362;28;20031;-58
2021/07/03 01:56:27;;;;;;;3.83;2.58;;;435.70;2278.40;;;;;;5067020;28;20021;-57
2021/07/03 01:58:52;;;;;;;4.32;2.40;;;435.70;2278.40;;;;;;5061670;28;20024;-57
2021/07/03 02:01:19;;;;;;;3.90;2.60;;;435.70;2278.40;;;;;;5063004;28;20024;-58
2021/07/03 02:03:45;;;;;;;3.40;2.60;;;435.60;2304.00;;;;;;5045407;28;20021;-58
2021/07/03 02:06:11;;;;;;;4.05;2.55;;;435.40;2329.60;;;;;;5061896;28;20043;-57
2021/07/03 02:08:36;;;;;;;4.38;2.60;;;435.50;2304.00;;;;;;5063351;28;20107;-57
2021/07/03 02:11:03;;;;;;;3.70;2.60;;;435.50;2304.00;;;;;;5063130;28;20140;-57
2021/07/03 02:13:30;;;;;;;3.90;2.90;;;435.50;2329.60;;;;;;5061480;28;20031;-57
2021/07/03 02:15:56;;;;;;;4.25;2.72;;;435.50;2304.00;;;;;;5063177;28;20020;-58
2021/07/03 02:18:23;;;;;;;4.07;2.55;;;435.40;2329.60;;;;;;5044777;28;20112;-57
2021/07/03 02:20:49;;;;;;;3.58;2.50;;;435.50;2329.60;;;;;;5043944;28;20098;-57
2021/07/03 02:23:15;;;;;;;3.58;2.70;;;435.40;2329.60;;;;;;5063331;28;20021;-59
2021/07/03 02:25:41;;;;;;;3.88;2.70;;;435.40;2329.60;;;;;;5062203;28;20479;-58
2021/07/03 02:28:07;;;;;;;4.63;2.72;;;435.50;2329.60;;;;;;5061892;28;20028;-57
2021/07/03 02:30:33;;;;;;;3.88;2.80;;;435.40;2355.20;;;;;;5063405;28;20374;-57
2021/07/03 02:33:00;;;;;;;5.50;2.97;;;435.30;2355.20;;;;;;5062087;28;20498;-57
2021/07/03 02:35:26;;;;;;;4.47;2.90;;;435.30;2355.20;;;;;;5061743;28;20481;-57
2021/07/03 02:37:52;;;;;;;4.75;2.50;;;435.40;2355.20;;;;;;5062932;28;20115;-58
2021/07/03 02:40:18;;;;;;;4.25;3.00;;;435.20;2355.20;;;;;;5062089;28;20048;-57
2021/07/03 02:42:45;;;;;;;3.90;2.80;;;435.30;2355.20;;;;;;5061761;28;20048;-56
2021/07/03 02:45:13;;;;;;;4.97;3.00;;;435.40;2355.20;;;;;;5063130;28;20016;-57
2021/07/03 02:47:40;;;;;;;5.40;2.63;;;435.30;2355.20;;;;;;5062201;28;20025;-58
2021/07/03 02:50:11;;;;;;;6.05;3.03;;;435.20;2355.20;;;;;;5061274;28;20021;-57
2021/07/03 02:52:37;;;;;;;4.72;2.80;;;435.30;2355.20;;;;;;5054185;28;20033;-59
2021/07/03 02:55:04;;;;;;;5.50;2.90;;;435.20;2355.20;;;;;;5035777;28;20055;-57
2021/07/03 02:57:30;;;;;;;6.57;2.97;;;435.30;2355.20;;;;;;5056893;28;20143;-57
2021/07/03 02:59:56;;;;;;;4.35;3.00;;;435.30;2355.20;;;;;;5057345;28;20057;-60
2021/07/03 03:02:21;;;;;;;6.20;2.60;;;435.20;2355.20;;;;;;5064608;28;20017;-57
2021/07/03 03:04:47;;;;;;;5.05;2.90;;;435.30;2355.20;;;;;;5066299;28;20016;-58
2021/07/03 03:07:13;;;;;;;3.97;2.80;;;410.50;2355.20;;;;;;5066615;28;20036;-58
2021/07/03 03:09:39;;;;;;;4.20;2.97;;;410.50;2355.20;;;;;;5064850;28;20017;-58
2021/07/03 03:12:05;;;;;;;3.88;2.80;;;410.50;2355.20;;;;;;5047856;28;20037;-58
2021/07/03 03:14:30;;;;;;;4.68;3.10;;;435.20;2355.20;;;;;;5065858;28;20021;-58
2021/07/03 03:16:56;;;;;;;5.32;3.10;;;435.20;2355.20;;;;;;5065010;28;20055;-57
2021/07/03 03:19:22;;;;;;;3.70;2.72;;;435.20;2355.20;;;;;;5066339;28;20013;-57
2021/07/03 03:21:48;;;;;;;4.65;3.03;;;435.30;2355.20;;;;;;5067409;28;20047;-59
2021/07/03 03:24:14;;;;;;;5.10;3.13;;;435.40;2355.20;;;;;;5067995;28;20053;-57
2021/07/03 03:26:39;;;;;;;4.18;2.78;;;435.40;2355.20;;;;;;5063953;28;20064;-58
2021/07/03 03:29:05;;;;;;;3.95;2.75;;;435.50;2355.20;;;;;;5065575;28;20051;-57
2021/07/03 03:31:31;;;;;;;5.32;3.20;;;435.60;2355.20;;;;;;5065907;28;20051;-58
2021/07/03 03:33:57;;;;;;;4.57;3.15;;;435.60;2355.20;;;;;;5064041;28;20078;-58
2021/07/03 03:36:22;;;;;;;4.68;2.72;;;435.60;2355.20;;;;;;5073629;28;20031;-58
2021/07/03 03:38:48;;;;;;;4.53;2.97;;;435.70;2355.20;;;;;;5065128;28;20020;-58
2021/07/03 03:41:14;;;;;;;3.78;2.85;;;435.60;2355.20;;;;;;5064881;28;20025;-57
2021/07/03 03:43:40;;;;;;;3.58;2.63;;;435.70;2355.20;;;;;;5064264;28;20029;-57
2021/07/03 03:46:06;;;;;;;4.43;2.70;;;435.70;2355.20;;;;;;5066270;28;20032;-58
2021/07/03 03:48:31;;;;;;;4.45;2.92;;;435.80;2355.20;;;;;;5061486;28;20378;-59
2021/07/03 03:50:57;;;;;;;3.38;2.60;;;435.80;2355.20;;;;;;5061860;28;20036;-57
2021/07/03 03:53:23;;;;;;;4.38;2.78;;;435.80;2355.20;;;;;;5065455;28;20031;-58
2021/07/03 03:55:49;;;;;;;4.25;2.90;;;435.90;2355.20;;;;;;5063487;28;20025;-58
2021/07/03 03:58:14;;;;;;;4.55;2.60;;;435.90;2355.20;;;;;;5064276;28;20097;-57
2021/07/03 04:00:40;;;;;;;3.45;2.70;;;436.00;2329.60;;;;;;5064836;28;20494;-60
2021/07/03 04:03:06;;;;;;;4.13;2.63;;;436.10;2329.60;;;;;;5063378;28;20021;-59
2021/07/03 04:05:32;;;;;;;4.07;2.80;;;436.00;2355.20;;;;;;5064421;28;20561;-58
2021/07/03 04:07:57;;;;;;;5.35;2.50;;;436.10;2329.60;;;;;;5067457;28;20028;-58
2021/07/03 04:10:23;;;;;;;3.63;2.45;;;436.10;2329.60;;;;;;5065796;28;20032;-58
2021/07/03 04:12:49;;;;;;;3.60;2.55;;;436.10;2355.20;;;;;;5060643;28;20086;-57
2021/07/03 04:15:15;;;;;;;3.50;2.40;;;436.00;2355.20;;;;;;5063504;28;20028;-58
2021/07/03 04:17:41;;;;;;;4.00;2.42;;;460.80;2355.20;;;;;;5063847;28;20028;-58
2021/07/03 04:20:09;;;;;;;6.28;2.75;;;436.10;2329.60;;;;;;5064439;28;20079;-58
2021/07/03 04:22:35;;;;;;;3.33;2.33;;;460.80;2355.20;;;;;;5063232;28;20025;-57
2021/07/03 04:25:02;;;;;;;5.10;2.80;;;460.80;2355.20;;;;;;5045264;28;20482;-58
2021/07/03 04:27:28;;;;;;;6.38;2.75;;;460.80;2355.20;;;;;;5064606;28;20551;-57
2021/07/03 04:29:54;;;;;;;3.60;2.60;;;460.80;2355.20;;;;;;5062937;28;20105;-57
2021/07/03 04:32:19;;;;;;;2.75;2.13;;;460.90;2355.20;;;;;;5064113;28;20493;-58
2021/07/03 04:34:45;;;;;;;3.47;2.60;;;461.10;2329.60;;;;;;5064224;28;20052;-57
2021/07/03 04:37:11;;;;;;;3.83;2.33;;;461.20;2329.60;;;;;;5062685;28;20446;-57
2021/07/03 04:39:38;;;;;;;3.95;2.60;;;461.20;2329.60;;;;;;5064485;28;20028;-58
2021/07/03 04:42:04;;;;;;;3.75;2.10;;;461.30;2329.60;;;;;;5063434;28;20834;-58
2021/07/03 04:44:30;;;;;;;3.13;2.00;;;461.30;2304.00;;;;;;5062517;28;20110;-57
2021/07/03 04:46:55;;;;;;;4.00;2.55;;;461.40;2304.00;;;;;;5064002;28;20469;-57
2021/07/03 04:49:22;;;;;;;4.40;2.50;;;461.40;2304.00;;;;;;5063587;28;20399;-58
2021/07/03 04:51:47;;;;;;;4.50;2.28;;;461.60;2278.40;;;;;;5062264;28;20028;-59
2021/07/03 04:54:13;;;;;;;4.95;2.28;;;461.60;2278.40;;;;;;5063899;28;20024;-57
2021/07/03 04:56:39;;;;;;;3.08;2.17;;;461.70;2278.40;;;;;;5044855;28;20036;-58
2021/07/03 04:59:04;;;;;;;5.90;2.83;;;461.60;2278.40;;;;;;5062884;28;20051;-58
2021/07/03 05:01:30;;;;;;;5.80;2.70;;;461.70;2278.40;;;;;;5064310;28;20111;-57
2021/07/03 05:03:56;;;;;;;4.65;2.30;;;461.70;2278.40;;;;;;5044205;28;20036;-58
2021/07/03 05:06:21;;;;;;;4.93;2.40;;;486.40;2278.40;;;;;;5063076;28;20024;-58
2021/07/03 05:08:47;;;;;;;4.72;2.40;;;486.50;2252.80;;;;;;5064043;28;20100;-58
2021/07/03 05:11:13;;;;;;;4.78;2.63;;;486.40;2278.40;;;;;;5057202;28;20493;-58
2021/07/03 05:13:38;;;;;;;4.07;2.40;;;486.60;2252.80;;;;;;5062868;28;20021;-58
2021/07/03 05:16:05;;;;;;;3.88;2.58;;;486.60;2252.80;;;;;;5061829;28;20023;-58
2021/07/03 05:18:31;;;;;;;5.15;2.42;;;486.80;2227.20;;;;;;5062590;28;20029;-60
2021/07/03 05:20:57;;;;;;;5.43;2.70;;;487.00;2227.20;;;;;;5064097;28;20033;-59
2021/07/03 05:23:23;;;;;;;3.90;2.42;;;487.00;2201.60;;;;;;5061821;28;20064;-59
2021/07/03 05:25:52;;;;;;;3.22;2.40;;;487.10;2201.60;;;;;;5063155;28;20044;-60
2021/07/03 05:28:18;;;;;;;3.58;2.40;;;487.20;2201.60;;;;;;5063801;28;20020;-61
2021/07/03 05:30:43;;;;;;;3.00;2.35;;;487.20;2201.60;;;;;;5043425;28;20107;-58
2021/07/03 05:33:09;;;;;;;3.38;2.60;;;512.00;2176.00;;;;;;5062936;28;20017;-58
2021/07/03 05:35:36;;;;;;;4.43;2.50;;;512.00;2176.00;;;;;;5062916;28;20029;-60
2021/07/03 05:38:02;;;;;;;3.97;2.50;;;512.10;2150.40;;;;;;5061217;28;20546;-59
2021/07/03 05:40:28;;;;;;;3.53;2.40;;;512.20;2150.40;;;;;;5062913;28;20031;-60
2021/07/03 05:42:53;;;;;;;3.85;2.53;;;512.30;2150.40;;;;;;5063292;28;20049;-60
2021/07/03 05:45:19;;;;;;;3.05;2.30;;;512.40;2150.40;;;;;;5060318;28;20095;-60
2021/07/03 05:47:51;;;;;;;3.63;2.42;;;512.60;2124.80;;;;;;5061305;28;20040;-60
2021/07/03 05:50:22;;;;;;;4.82;2.67;;;512.60;2124.80;;;;;;5073498;28;20044;-61
2021/07/03 05:52:49;;;;;;;4.50;2.90;;;512.80;2099.20;;;;;;5073545;28;20028;-60
2021/07/03 05:55:15;;;;;;;3.50;2.70;;;512.70;2099.20;;;;;;5073710;28;20478;-58
2021/07/03 05:57:42;;;;;;;3.47;2.60;;;512.80;2073.60;;;;;;5073483;28;20039;-59
2021/07/03 06:00:09;;;;;;;3.65;2.80;;;512.90;2073.60;;;;;;5073339;28;20029;-61
2021/07/03 06:02:35;;;;;;;4.10;2.30;;;512.90;2073.60;;;;;;5074059;28;20035;-59
2021/07/03 06:05:00;;;;;;;4.72;2.80;;;512.90;2073.60;;;;;;5073377;28;20104;-61
2021/07/03 06:07:26;;;;;;;3.75;2.60;;;537.70;2099.20;;;;;;5073444;28;20028;-61
2021/07/03 06:09:53;;;;;;;4.22;2.80;;;537.80;2073.60;;;;;;5073327;28;20493;-61
2021/07/03 06:12:19;;;;;;;5.60;2.70;;;537.90;2073.60;;;;;;5073688;28;20471;-61
2021/07/03 06:14:45;;;;;;;3.85;2.92;;;537.90;2073.60;;;;;;5073916;28;20059;-61
2021/07/03 06:17:13;;;;;;;3.70;2.70;;;537.90;2073.60;;;;;;5074144;28;20024;-62
2021/07/03 06:19:43;;;;;;;3.80;2.53;;;538.00;2048.00;;;;;;5073914;28;20028;-61
2021/07/03 06:22:13;;;;;;;6.72;2.80;;;538.10;2048.00;;;;;;5073700;28;20044;-60
2021/07/03 06:24:43;;;;;;;3.88;2.90;;;538.10;2048.00;;;;;;5073875;28;20390;-61
2021/07/03 06:27:12;;;;;;;3.85;2.65;;;538.10;2048.00;;;;;;5073959;28;20032;-62
2021/07/03 06:29:38;;;;;;;5.32;2.90;;;538.00;2073.60;;;;;;5073225;28;20017;-58
2021/07/03 06:32:05;;;;;;;4.88;2.90;;;538.20;2048.00;;;;;;5073481;28;20031;-60
2021/07/03 06:34:31;;;;;;;3.80;2.60;;;538.40;2048.00;;;;;;5073516;28;20029;-58
2021/07/03 06:36:57;;;;;;;5.28;2.60;;;538.40;2048.00;;;;;;5073433;28;20070;-59
2021/07/03 06:39:23;;;;;;;3.50;2.88;;;538.50;2048.00;;;;;;5073519;28;20021;-59
2021/07/03 06:41:49;;;;;;;5.53;2.85;;;538.50;2022.40;;;;;;5073473;28;20051;-59
2021/07/03 06:44:14;;;;;;;5.03;2.72;;;538.50;1996.80;;;;;;5073715;28;20099;-58
2021/07/03 06:46:40;;;;;;;7.30;3.00;;;563.20;2022.40;;;;;;5073202;28;20055;-59
2021/07/03 06:49:06;;;;;;;4.05;2.92;;;563.20;2022.40;;;;;;5073321;28;20466;-58
2021/07/03 06:51:33;;;;;;;4.40;3.20;;;538.40;1996.80;;;;;;5073570;28;20036;-59
2021/07/03 06:54:01;;;;;;;7.85;2.90;;;563.20;2022.40;;;;;;5073652;28;20028;-59
2021/07/03 06:56:27;;;;;;;3.70;2.70;;;563.30;1996.80;;;;;;5073738;28;20081;-58
2021/07/03 06:58:53;;;;;;;4.75;2.97;;;563.40;1996.80;;;;;;5073409;28;20097;-58
2021/07/03 07:01:19;;;;;;;4.57;2.90;;;563.30;1971.20;;;;;;5073422;28;20119;-58
2021/07/03 07:03:45;;;;;;;4.50;3.08;;;563.40;1971.20;;;;;;5073313;28;20034;-58
2021/07/03 07:06:11;;;;;;;5.68;3.05;;;563.40;1996.80;;;;;;5054867;28;20049;-58
2021/07/03 07:08:36;;;;;;;4.68;3.22;;;563.40;1971.20;;;;;;5073230;28;20024;-59
2021/07/03 07:11:03;;;;;;;4.75;3.13;;;563.30;1971.20;;;;;;5066173;28;20116;-58
2021/07/03 07:13:29;;;;;;;5.25;2.88;;;563.20;1996.80;;;;;;5060811;28;20009;-58
2021/07/03 07:15:55;;;;;;;5.55;3.17;;;563.40;1971.20;;;;;;5062121;28;20028;-60
2021/07/03 07:18:20;;;;;;;3.53;2.83;;;563.50;1971.20;;;;;;5062263;28;20379;-58
2021/07/03 07:20:46;;;;;;;4.82;2.95;;;563.50;1971.20;;;;;;5060483;28;20348;-59
2021/07/03 07:23:12;;;;;;;4.18;2.80;;;563.70;1971.20;;;;;;5063253;28;20091;-59
2021/07/03 07:25:38;;;;;;;3.97;3.05;;;564.00;1945.60;;;;;;5061919;28;20100;-59
2021/07/03 07:28:04;;;;;;;3.92;3.10;;;564.00;1920.00;;;;;;5061258;28;20046;-60
2021/07/03 07:30:29;;;;;;;6.32;3.80;;;564.10;1894.40;;;;;;5062582;28;20017;-59
2021/07/03 07:32:55;;;;;;;3.95;3.05;;;588.90;1894.40;;;;;;5061396;28;20021;-59
2021/07/03 07:35:21;;;;;;;4.35;2.85;;;589.00;1868.80;;;;;;5043620;28;20540;-61
2021/07/03 07:37:50;;;;;;;3.83;2.95;;;589.10;1868.80;;;;;;5062511;28;20108;-59
2021/07/03 07:40:17;;;;;;;3.60;2.90;;;589.30;1868.80;;;;;;5061606;28;20051;-58
2021/07/03 07:42:43;;;;;;;3.47;3.08;;;589.50;1817.60;;;;;;5062569;28;20052;-58
2021/07/03 07:45:10;;;;;;;4.43;3.00;;;589.40;1817.60;;;;;;5065995;28;20017;-58
2021/07/03 07:47:36;;;;;;;4.80;3.35;;;589.30;1817.60;;;;;;5064731;28;20538;-59
2021/07/03 07:50:04;;;;;;;3.78;2.95;;;589.50;1843.20;;;;;;5064536;28;20070;-59
2021/07/03 07:52:31;;;;;;;4.32;3.08;;;589.70;1792.00;;;;;;5066260;28;20029;-59
2021/07/03 07:54:56;;;;;;;4.00;2.97;;;614.60;1792.00;;;;;;5064695;28;20017;-58
2021/07/03 07:57:22;;;;;;;3.95;3.10;;;614.60;1740.80;;;;;;5064501;28;20031;-58
2021/07/03 07:59:49;;;;;;;6.25;3.13;;;614.90;1740.80;;;;;;5065819;28;20515;-59
2021/07/03 08:02:15;;;;;;;6.50;3.40;;;614.70;1715.20;;;;;;5064266;28;20028;-58
2021/07/03 08:04:41;;;;;;;6.38;3.15;;;614.90;1715.20;;;;;;5064320;28;20478;-58
2021/07/03 08:07:07;;;;;;;7.78;3.15;;;615.10;1689.60;;;;;;5065776;28;20043;-58
2021/07/03 08:09:33;;;;;;;7.53;2.90;;;615.20;1689.60;;;;;;5064204;28;20068;-59
2021/07/03 08:11:59;;;;;;;4.05;3.08;;;640.00;1664.00;;;;;;5064698;28;20104;-58
2021/07/03 08:14:25;;;;;;;4.55;3.00;;;640.00;1638.40;;;;;;5040323;28;20386;-58
2021/07/03 08:16:51;;;;;;;3.60;3.13;;;640.00;1664.00;;;;;;5055921;28;20029;-58
2021/07/03 08:19:17;;;;;;;4.20;3.03;;;640.00;1664.00;;;;;;5055960;28;20025;-59
2021/07/03 08:21:43;;;;;;;6.15;3.35;;;640.20;1638.40;;;;;;5055941;28;20044;-58
2021/07/03 08:24:10;;;;;;;8.18;3.35;;;640.10;1612.80;;;;;;5056085;28;20433;-59
2021/07/03 08:26:35;;;;;;;9.40;3.78;;;640.00;1638.40;;;;;;5055550;28;20482;-58
2021/07/03 08:29:01;;;;;;;9.70;3.40;;;640.20;1612.80;;;;;;5055917;28;20057;-60
2021/07/03 08:31:27;;;;;;;12.43;3.08;;;640.60;1587.20;;;;;;5055622;28;20083;-59
2021/07/03 08:33:53;;;;;;;8.82;3.40;;;665.60;1561.60;;;;;;5055607;28;20021;-61
2021/07/03 08:36:19;;;;;;;3.78;3.05;;;665.80;1561.60;;;;;;5055401;28;20021;-60
2021/07/03 08:38:45;;;;;;;5.22;3.20;;;665.90;1536.00;;;;;;5055214;28;20033;-62
2021/07/03 08:41:12;;;;;;;3.78;2.90;;;666.10;1536.00;;;;;;5055706;28;20025;-60
2021/07/03 08:43:49;;;;;;;5.28;2.80;;;665.80;1561.60;;;;;;5055651;28;20029;-59
2021/07/03 08:46:19;;;;;;;4.90;3.10;;;666.20;1510.40;;;;;;5055279;28;20063;-60
2021/07/03 08:48:49;;;;;;;6.22;3.00;;;666.40;1510.40;;;;;;5055542;28;20108;-59
2021/07/03 08:51:15;;;;;;;6.95;2.88;;;666.40;1510.40;;;;;;5055569;28;20115;-61
2021/07/03 08:53:41;;;;;;;6.05;3.17;;;665.80;1510.40;;;;;;5054104;28;20486;-60
2021/07/03 08:56:07;;;;;;;3.70;2.85;;;666.20;1484.80;;;;;;5055320;28;20045;-61
2021/07/03 08:58:32;;;;;;;3.70;3.20;;;666.40;1484.80;;;;;;5055370;28;20387;-59
2021/07/03 09:00:58;;;;;;;3.58;2.90;;;691.20;1484.80;;;;;;5055146;28;20349;-63
2021/07/03 09:03:26;;;;;;;5.57;2.65;;;691.40;1459.20;;;;;;5055322;28;20036;-60
2021/07/03 09:05:55;;;;;;;4.85;2.60;;;691.40;1433.60;;;;;;5054868;28;20116;-60
2021/07/03 09:08:22;;;;;;;3.17;2.72;;;691.70;1433.60;;;;;;5055137;28;20052;-61
2021/07/03 09:10:58;;;;;;;4.28;2.72;;;691.80;1433.60;;;;;;5055300;28;20033;-59
2021/07/03 09:13:23;;;;;;;2.63;2.40;;;692.00;1433.60;;;;;;5054896;28;20021;-59
2021/07/03 09:15:49;;;;;;;3.03;2.45;;;691.90;1408.00;;;;;;5055035;28;20426;-61
2021/07/03 09:18:18;;;;;;;3.63;2.63;;;692.10;1382.40;;;;;;5054749;28;20025;-58
2021/07/03 09:20:52;;;;;;;6.78;3.13;;;716.80;1408.00;;;;;;5036798;28;20060;-61
2021/07/03 09:23:22;;;;;;;3.72;2.58;;;717.10;1382.40;;;;;;5054804;28;20055;-62
2021/07/03 09:25:49;;;;;;;8.43;3.08;;;717.10;1356.80;;;;;;5062626;28;20044;-58
2021/07/03 09:28:16;;;;;;;3.40;2.50;;;717.10;1356.80;;;;;;5056859;28;20575;-59
2021/07/03 09:30:44;;;;;;;4.32;2.30;;;717.40;1331.20;;;;;;5074369;28;20035;-58
2021/07/03 09:33:10;;;;;;;4.05;2.50;;;717.60;1305.60;;;;;;5074349;28;20474;-58
2021/07/03 09:35:36;;;;;;;3.03;2.20;;;717.40;1305.60;;;;;;5074591;28;20032;-58
2021/07/03 09:38:07;;;;;;;2.83;2.10;;;717.40;1280.00;;;;;;5072795;28;20351;-58
2021/07/03 09:40:35;;;;;;;2.90;2.40;;;717.40;1305.60;;;;;;5062057;28;20036;-59
2021/07/03 09:43:08;;;;;;;3.05;2.30;;;717.60;1305.60;;;;;;5053871;28;20080;-61
2021/07/03 09:45:34;;;;;;;2.92;2.47;;;742.50;1280.00;;;;;;5053638;28;20482;-59
2021/07/03 09:48:11;;;;;;;2.92;2.40;;;717.70;1254.40;;;;;;5053831;28;20429;-60
2021/07/03 09:50:39;;;;;;;4.10;2.50;;;717.60;1280.00;;;;;;5054154;28;20033;-60
2021/07/03 09:53:06;;;;;;;3.45;2.50;;;742.50;1331.20;;;;;;5054026;28;20360;-61
2021/07/03 09:55:33;;;;;;;3.53;2.45;;;742.50;1280.00;;;;;;5053806;28;20029;-60
2021/07/03 09:58:00;;;;;;;5.45;2.60;;;742.70;1254.40;;;;;;5054127;28;20045;-58
2021/07/03 10:00:25;;;;;;;5.30;2.30;;;742.90;1254.40;;;;;;5053753;28;20032;-60
2021/07/03 10:02:52;;;;;;;2.88;2.35;;;743.20;1228.80;;;;;;5053102;28;20025;-60
2021/07/03 10:05:21;;;;;;;4.00;2.10;;;743.20;1228.80;;;;;;5052983;28;20159;-60
2021/07/03 10:07:57;;;;;;;4.80;2.47;;;743.20;1228.80;;;;;;5053449;28;20033;-59
2021/07/03 10:10:26;;;;;;;3.25;2.60;;;768.00;1228.80;;;;;;5053575;28;20031;-58
2021/07/03 10:13:08;;;;;;;4.35;2.40;;;768.00;1228.80;;;;;;5053694;28;20021;-60
2021/07/03 10:15:35;;;;;;;5.25;2.10;;;768.10;1228.80;;;;;;5053398;28;20024;-58
2021/07/03 10:18:19;;;;;;;3.13;2.10;;;768.00;1177.60;;;;;;5053137;28;20060;-59
2021/07/03 10:20:45;;;;;;;2.67;1.95;;;768.00;1177.60;;;;;;5053442;28;20487;-60
2021/07/03 10:23:11;;;;;;;3.22;2.20;;;768.00;1177.60;;;;;;5053541;28;20044;-59
2021/07/03 10:25:45;;;;;;;3.15;2.10;;;768.30;1177.60;;;;;;5052619;28;20029;-60
2021/07/03 10:28:17;;;;;;;4.33;2.67;;;768.30;1177.60;;;;;;5042242;28;20363;-60
2021/07/03 10:30:49;;;;;;;3.35;2.47;;;768.50;1177.60;;;;;;5062528;28;20032;-60
2021/07/03 10:33:21;;;;;;;3.90;2.20;;;768.30;1177.60;;;;;;5059668;28;20035;-60
2021/07/03 10:35:50;;;;;;;2.92;2.20;;;768.10;1177.60;;;;;;5061238;28;20086;-59
2021/07/03 10:38:20;;;;;;;3.97;2.53;;;743.10;1254.40;;;;;;5060344;28;20104;-59
2021/07/03 10:40:46;;;;;;;3.13;2.30;;;743.20;1228.80;;;;;;5062442;28;20052;-58
2021/07/03 10:43:13;;;;;;;2.70;2.30;;;743.20;1203.20;;;;;;5060766;28;20037;-58
2021/07/03 10:45:54;;;;;;;3.92;2.30;;;743.00;1203.20;;;;;;5062208;28;20037;-58
2021/07/03 10:48:25;;;;;;;4.20;2.10;;;768.10;1177.60;;;;;;5061201;28;20025;-60
2021/07/03 10:50:54;;;;;;;3.80;2.17;;;768.30;1152.00;;;;;;5042628;28;20545;-57
2021/07/03 10:53:29;;;;;;;3.42;2.13;;;768.00;1177.60;;;;;;5061996;28;20020;-57
2021/07/03 10:55:56;;;;;;;;;;;768.00;1203.20;;;;;;5063179;28;20024;-58
2021/07/03 10:58:28;;;;;;;3.08;2.10;;;742.70;1254.40;;;;;;5061628;28;19905;-59
2021/07/03 11:01:07;;;;;;;2.42;2.08;;;742.80;1228.80;;;;;;5060592;28;20028;-56
2021/07/03 11:03:41;;;;;;;4.75;2.08;;;743.10;1228.80;;;;;;5060562;28;20348;-56
2021/07/03 11:06:20;;;;;;;3.08;2.45;;;743.20;1177.60;;;;;;5061011;28;20039;-58
2021/07/03 11:08:47;;;;;;;3.22;2.50;;;768.30;1177.60;;;;;;5071688;28;20040;-56
2021/07/03 11:11:15;;;;;;;2.75;2.20;;;768.10;1177.60;;;;;;5055107;28;20033;-57
2021/07/03 11:13:42;;;;;;;2.63;2.10;;;768.30;1177.60;;;;;;5073272;28;20036;-56
2021/07/03 11:16:10;;;;;;;2.70;1.98;;;768.10;1177.60;;;;;;5073065;28;20035;-56
2021/07/03 11:18:44;;;;;;;3.85;2.30;;;768.50;1177.60;;;;;;5076249;28;20025;-56
2021/07/03 11:21:12;;;;;;;2.95;2.30;;;768.50;1177.60;;;;;;5077143;28;20024;-57
2021/07/03 11:23:38;;;;;;;3.50;2.20;;;768.30;1203.20;;;;;;5076552;28;20032;-56
2021/07/03 11:26:15;;;;;;;2.42;2.00;;;768.60;1203.20;;;;;;5076846;28;20041;-57
2021/07/03 11:28:41;;;;;;;4.68;2.30;;;768.50;1152.00;;;;;;5076571;28;20024;-57
2021/07/03 11:31:07;;;;;;;2.65;2.17;;;768.80;1126.40;;;;;;5077028;28;20366;-57
2021/07/03 11:33:35;;;;;;;2.90;1.85;;;768.60;1126.40;;;;;;5076726;28;20044;-57
2021/07/03 11:36:04;;;;;;;2.88;2.10;;;768.30;1126.40;;;;;;5076631;28;20028;-57
2021/07/03 11:38:31;;;;;;;2.25;1.77;;;768.50;1126.40;;;;;;5076726;28;20028;-56
2021/07/03 11:41:00;;;;;;;2.95;1.83;;;768.80;1100.80;;;;;;5071047;28;20032;-56
2021/07/03 11:43:29;;;;;;;2.88;2.08;;;768.90;1100.80;;;;;;5066323;28;20107;-59
2021/07/03 11:45:56;;;;;;;3.38;2.20;;;768.70;1126.40;;;;;;5064974;28;20079;-57
2021/07/03 11:48:24;;;;;;;2.75;2.20;;;768.20;1152.00;;;;;;5066793;28;20040;-59
2021/07/03 11:51:00;;;;;;;2.60;2.13;;;743.00;1177.60;;;;;;5066038;28;20033;-56
2021/07/03 11:53:28;;;;;;;2.88;2.05;;;768.00;1177.60;;;;;;5063976;28;20023;-55
2021/07/03 11:55:56;;;;;;;5.57;2.40;;;768.30;1177.60;;;;;;5058252;28;20033;-60
2021/07/03 11:58:27;;;;;;;3.42;2.20;;;768.40;1177.60;;;;;;5064522;28;20021;-56
2021/07/03 12:00:57;;;;;;;2.60;1.90;;;768.80;1126.40;;;;;;5046829;28;20032;-56
2021/07/03 12:03:26;;;;;;;2.92;2.10;;;793.60;1126.40;;;;;;5063313;28;20043;-56
2021/07/03 12:05:53;;;;;;;2.95;2.33;;;793.90;1126.40;;;;;;5063614;28;20535;-56
2021/07/03 12:08:20;;;;;;;3.47;2.40;;;794.00;1126.40;;;;;;5063834;28;20020;-57
2021/07/03 12:10:49;;;;;;;3.83;2.30;;;768.60;1126.40;;;;;;5063884;28;20021;-56
2021/07/03 12:13:26;;;;;;;3.05;2.20;;;768.80;1126.40;;;;;;5064639;28;20024;-56
2021/07/03 12:15:58;;;;;;;2.95;2.35;;;793.80;1152.00;;;;;;5064745;28;20106;-56
2021/07/03 12:18:30;;;;;;;3.17;2.05;;;794.10;1075.20;;;;;;5065106;28;20009;-55